sensor_id;sensor_type;location;lat;lon;timestamp;pressure;altitude;pressure_sealevel;temperature;humidity
29815;BME280;16708;50.426;7.664;2023-05-29T00:03:27;989.78;;;14.95;100.00
29815;BME280;16708;50.426;7.664;2023-05-29T00:08:21;989.74;;;14.80;100.00
29815;BME280;16708;50.426;7.664;2023-05-29T00:13:16;989.78;;;14.30;100.00
29815;BME280;16708;50.426;7.664;2023-05-29T00:18:09;989.76;;;13.87;100.00
29815;BME280;16708;50.426;7.664;2023-05-29T00:23:03;989.89;;;14.08;100.00
29815;BME280;16708;50.426;7.664;2023-05-29T00:27:57;989.96;;;14.47;100.00
29815;BME280;16708;50.426;7.664;2023-05-29T00:32:50;989.84;;;14.51;100.00
29815;BME280;16708;50.426;7.664;2023-05-29T00:37:45;989.91;;;14.33;100.00
29815;BME280;16708;50.426;7.664;2023-05-29T00:42:39;989.98;;;14.00;100.00
29815;BME280;16708;50.426;7.664;2023-05-29T00:47:33;990.01;;;13.67;100.00
29815;BME280;16708;50.426;7.664;2023-05-29T00:52:26;989.98;;;13.45;100.00
29815;BME280;16708;50.426;7.664;2023-05-29T00:57:21;989.94;;;13.57;100.00
29815;BME280;16708;50.426;7.664;2023-05-29T01:02:15;990.09;;;13.50;100.00
29815;BME280;16708;50.426;7.664;2023-05-29T01:07:09;990.24;;;13.34;100.00
29815;BME280;16708;50.426;7.664;2023-05-29T01:21:52;990.07;;;13.01;100.00
29815;BME280;16708;50.426;7.664;2023-05-29T01:26:46;990.13;;;12.86;100.00
29815;BME280;16708;50.426;7.664;2023-05-29T01:31:41;990.11;;;12.72;100.00
29815;BME280;16708;50.426;7.664;2023-05-29T01:36:35;990.19;;;12.45;100.00
29815;BME280;16708;50.426;7.664;2023-05-29T01:41:29;990.15;;;12.40;100.00
29815;BME280;16708;50.426;7.664;2023-05-29T01:46:24;990.18;;;12.30;100.00
29815;BME280;16708;50.426;7.664;2023-05-29T01:51:18;990.18;;;12.21;100.00
29815;BME280;16708;50.426;7.664;2023-05-29T01:56:12;990.08;;;12.05;100.00
29815;BME280;16708;50.426;7.664;2023-05-29T02:01:07;990.07;;;11.95;100.00
29815;BME280;16708;50.426;7.664;2023-05-29T02:06:01;989.98;;;11.87;100.00
29815;BME280;16708;50.426;7.664;2023-05-29T02:10:57;990.04;;;11.70;100.00
29815;BME280;16708;50.426;7.664;2023-05-29T02:15:49;990.06;;;11.61;100.00
29815;BME280;16708;50.426;7.664;2023-05-29T02:20:44;989.98;;;11.52;100.00
29815;BME280;16708;50.426;7.664;2023-05-29T02:25:38;989.93;;;11.38;100.00
29815;BME280;16708;50.426;7.664;2023-05-29T02:30:32;990.01;;;11.26;100.00
29815;BME280;16708;50.426;7.664;2023-05-29T02:35:26;990.11;;;11.16;100.00
29815;BME280;16708;50.426;7.664;2023-05-29T02:40:20;990.08;;;11.13;100.00
29815;BME280;16708;50.426;7.664;2023-05-29T02:45:14;990.17;;;11.03;100.00
29815;BME280;16708;50.426;7.664;2023-05-29T02:50:08;990.25;;;10.97;100.00
29815;BME280;16708;50.426;7.664;2023-05-29T02:55:02;990.26;;;10.91;100.00
29815;BME280;16708;50.426;7.664;2023-05-29T02:59:57;990.27;;;10.89;100.00
29815;BME280;16708;50.426;7.664;2023-05-29T03:04:51;990.28;;;10.86;100.00
29815;BME280;16708;50.426;7.664;2023-05-29T03:09:45;990.36;;;10.80;100.00
29815;BME280;16708;50.426;7.664;2023-05-29T03:14:39;990.39;;;10.66;100.00
29815;BME280;16708;50.426;7.664;2023-05-29T03:19:33;990.51;;;10.65;100.00
29815;BME280;16708;50.426;7.664;2023-05-29T03:24:27;990.50;;;10.55;100.00
29815;BME280;16708;50.426;7.664;2023-05-29T03:29:21;990.48;;;10.60;100.00
29815;BME280;16708;50.426;7.664;2023-05-29T03:34:15;990.55;;;10.61;100.00
29815;BME280;16708;50.426;7.664;2023-05-29T03:39:10;990.53;;;10.84;100.00
29815;BME280;16708;50.426;7.664;2023-05-29T03:44:04;990.51;;;10.83;100.00
29815;BME280;16708;50.426;7.664;2023-05-29T03:48:58;990.51;;;10.86;100.00
29815;BME280;16708;50.426;7.664;2023-05-29T03:53:52;990.55;;;10.93;100.00
29815;BME280;16708;50.426;7.664;2023-05-29T03:58:46;990.65;;;10.94;100.00
29815;BME280;16708;50.426;7.664;2023-05-29T04:03:40;990.71;;;10.99;100.00
29815;BME280;16708;50.426;7.664;2023-05-29T04:08:33;990.79;;;10.96;100.00
29815;BME280;16708;50.426;7.664;2023-05-29T04:13:28;990.89;;;11.07;100.00
29815;BME280;16708;50.426;7.664;2023-05-29T04:18:21;990.96;;;11.11;100.00
29815;BME280;16708;50.426;7.664;2023-05-29T04:23:16;990.92;;;11.23;100.00
29815;BME280;16708;50.426;7.664;2023-05-29T04:28:10;990.99;;;11.33;100.00
29815;BME280;16708;50.426;7.664;2023-05-29T04:33:04;990.99;;;11.49;100.00
29815;BME280;16708;50.426;7.664;2023-05-29T04:37:59;991.18;;;11.55;100.00
29815;BME280;16708;50.426;7.664;2023-05-29T04:42:53;991.21;;;11.63;100.00
29815;BME280;16708;50.426;7.664;2023-05-29T04:47:49;991.33;;;11.81;100.00
29815;BME280;16708;50.426;7.664;2023-05-29T04:52:40;991.29;;;11.78;100.00
29815;BME280;16708;50.426;7.664;2023-05-29T04:57:34;991.46;;;11.89;100.00
29815;BME280;16708;50.426;7.664;2023-05-29T05:02:29;991.47;;;12.21;100.00
29815;BME280;16708;50.426;7.664;2023-05-29T05:07:23;991.47;;;12.40;100.00
29815;BME280;16708;50.426;7.664;2023-05-29T05:12:17;991.52;;;12.61;100.00
29815;BME280;16708;50.426;7.664;2023-05-29T05:17:12;991.48;;;12.82;100.00
29815;BME280;16708;50.426;7.664;2023-05-29T05:22:06;991.51;;;12.98;100.00
29815;BME280;16708;50.426;7.664;2023-05-29T05:26:59;991.49;;;13.00;100.00
29815;BME280;16708;50.426;7.664;2023-05-29T05:31:51;991.58;;;13.24;100.00
29815;BME280;16708;50.426;7.664;2023-05-29T05:36:45;991.56;;;13.26;100.00
29815;BME280;16708;50.426;7.664;2023-05-29T05:41:40;991.56;;;13.37;100.00
29815;BME280;16708;50.426;7.664;2023-05-29T05:46:34;991.56;;;13.44;100.00
29815;BME280;16708;50.426;7.664;2023-05-29T05:51:29;991.53;;;13.64;100.00
29815;BME280;16708;50.426;7.664;2023-05-29T05:56:23;991.53;;;13.77;100.00
29815;BME280;16708;50.426;7.664;2023-05-29T06:01:18;991.60;;;13.84;100.00
29815;BME280;16708;50.426;7.664;2023-05-29T06:06:12;991.61;;;14.04;100.00
29815;BME280;16708;50.426;7.664;2023-05-29T06:11:07;991.65;;;14.11;100.00
29815;BME280;16708;50.426;7.664;2023-05-29T06:16:01;991.63;;;14.50;100.00
29815;BME280;16708;50.426;7.664;2023-05-29T06:20:55;991.76;;;14.50;100.00
29815;BME280;16708;50.426;7.664;2023-05-29T06:25:50;991.76;;;14.53;100.00
29815;BME280;16708;50.426;7.664;2023-05-29T06:30:45;991.88;;;14.72;100.00
29815;BME280;16708;50.426;7.664;2023-05-29T06:35:37;991.91;;;14.78;100.00
29815;BME280;16708;50.426;7.664;2023-05-29T06:40:30;991.94;;;14.80;100.00
29815;BME280;16708;50.426;7.664;2023-05-29T06:45:22;992.02;;;14.87;100.00
29815;BME280;16708;50.426;7.664;2023-05-29T06:50:17;992.07;;;15.11;100.00
29815;BME280;16708;50.426;7.664;2023-05-29T06:55:08;992.10;;;15.56;100.00
29815;BME280;16708;50.426;7.664;2023-05-29T07:00:03;992.00;;;15.88;100.00
29815;BME280;16708;50.426;7.664;2023-05-29T07:04:58;992.08;;;16.12;100.00
29815;BME280;16708;50.426;7.664;2023-05-29T07:09:51;992.03;;;16.01;100.00
29815;BME280;16708;50.426;7.664;2023-05-29T07:14:46;992.01;;;16.15;100.00
29815;BME280;16708;50.426;7.664;2023-05-29T07:19:40;991.95;;;16.32;100.00
29815;BME280;16708;50.426;7.664;2023-05-29T07:24:34;991.92;;;16.54;100.00
29815;BME280;16708;50.426;7.664;2023-05-29T07:29:29;992.00;;;17.10;100.00
29815;BME280;16708;50.426;7.664;2023-05-29T07:34:23;992.08;;;16.86;100.00
29815;BME280;16708;50.426;7.664;2023-05-29T07:39:18;992.11;;;16.73;100.00
29815;BME280;16708;50.426;7.664;2023-05-29T07:44:12;992.18;;;17.08;100.00
29815;BME280;16708;50.426;7.664;2023-05-29T07:49:10;992.22;;;17.13;100.00
29815;BME280;16708;50.426;7.664;2023-05-29T07:54:01;992.19;;;17.53;100.00
29815;BME280;16708;50.426;7.664;2023-05-29T07:58:56;992.08;;;17.93;100.00
29815;BME280;16708;50.426;7.664;2023-05-29T08:03:50;992.12;;;17.22;100.00
29815;BME280;16708;50.426;7.664;2023-05-29T08:08:44;992.09;;;17.49;100.00
29815;BME280;16708;50.426;7.664;2023-05-29T08:13:38;992.06;;;17.92;100.00
29815;BME280;16708;50.426;7.664;2023-05-29T08:18:32;992.12;;;18.15;100.00
29815;BME280;16708;50.426;7.664;2023-05-29T08:23:26;992.14;;;18.08;100.00
29815;BME280;16708;50.426;7.664;2023-05-29T08:28:21;992.20;;;18.42;100.00
29815;BME280;16708;50.426;7.664;2023-05-29T08:33:15;992.11;;;18.69;100.00
29815;BME280;16708;50.426;7.664;2023-05-29T08:38:09;992.03;;;19.18;100.00
29815;BME280;16708;50.426;7.664;2023-05-29T08:43:01;992.07;;;19.32;100.00
29815;BME280;16708;50.426;7.664;2023-05-29T08:47:54;992.01;;;19.29;100.00
29815;BME280;16708;50.426;7.664;2023-05-29T08:52:48;992.12;;;19.61;100.00
29815;BME280;16708;50.426;7.664;2023-05-29T08:57:42;992.10;;;19.94;100.00
29815;BME280;16708;50.426;7.664;2023-05-29T09:02:37;992.08;;;19.99;100.00
29815;BME280;16708;50.426;7.664;2023-05-29T09:07:32;992.05;;;20.15;100.00
29815;BME280;16708;50.426;7.664;2023-05-29T09:12:25;992.06;;;21.04;100.00
29815;BME280;16708;50.426;7.664;2023-05-29T09:22:13;992.13;;;21.12;100.00
29815;BME280;16708;50.426;7.664;2023-05-29T09:27:08;992.08;;;21.14;90.17
29815;BME280;16708;50.426;7.664;2023-05-29T09:32:02;992.07;;;21.14;91.93
29815;BME280;16708;50.426;7.664;2023-05-29T09:36:56;992.09;;;21.79;91.20
29815;BME280;16708;50.426;7.664;2023-05-29T09:41:51;991.97;;;21.86;82.48
29815;BME280;16708;50.426;7.664;2023-05-29T09:46:44;991.92;;;21.65;84.52
29815;BME280;16708;50.426;7.664;2023-05-29T09:51:39;991.97;;;22.82;82.17
29815;BME280;16708;50.426;7.664;2023-05-29T09:56:34;992.03;;;24.92;58.01
29815;BME280;16708;50.426;7.664;2023-05-29T10:01:30;992.10;;;26.27;51.70
29815;BME280;16708;50.426;7.664;2023-05-29T10:06:26;991.94;;;24.69;53.29
29815;BME280;16708;50.426;7.664;2023-05-29T10:11:21;991.92;;;27.03;47.85
29815;BME280;16708;50.426;7.664;2023-05-29T10:16:16;991.90;;;28.21;44.54
29815;BME280;16708;50.426;7.664;2023-05-29T10:21:11;991.93;;;27.33;44.19
29815;BME280;16708;50.426;7.664;2023-05-29T10:26:06;991.96;;;27.71;43.53
29815;BME280;16708;50.426;7.664;2023-05-29T10:31:00;992.01;;;27.56;44.17
29815;BME280;16708;50.426;7.664;2023-05-29T10:35:55;991.96;;;26.43;44.59
29815;BME280;16708;50.426;7.664;2023-05-29T10:40:48;992.00;;;27.29;44.34
29815;BME280;16708;50.426;7.664;2023-05-29T10:45:43;991.98;;;26.83;45.16
29815;BME280;16708;50.426;7.664;2023-05-29T10:50:37;991.98;;;27.37;43.90
29815;BME280;16708;50.426;7.664;2023-05-29T10:55:31;991.92;;;28.19;40.87
29815;BME280;16708;50.426;7.664;2023-05-29T11:00:24;991.90;;;28.21;41.67
29815;BME280;16708;50.426;7.664;2023-05-29T11:10:12;991.85;;;28.63;40.77
29815;BME280;16708;50.426;7.664;2023-05-29T11:15:06;991.86;;;29.06;38.41
29815;BME280;16708;50.426;7.664;2023-05-29T11:20:01;991.87;;;30.79;36.08
29815;BME280;16708;50.426;7.664;2023-05-29T11:24:55;991.73;;;27.62;40.93
29815;BME280;16708;50.426;7.664;2023-05-29T11:29:49;991.81;;;26.48;44.37
29815;BME280;16708;50.426;7.664;2023-05-29T11:34:42;991.57;;;25.83;46.44
29815;BME280;16708;50.426;7.664;2023-05-29T11:39:35;991.64;;;28.40;42.30
29815;BME280;16708;50.426;7.664;2023-05-29T11:59:14;991.50;;;30.02;35.89
29815;BME280;16708;50.426;7.664;2023-05-29T12:04:08;991.51;;;29.45;37.44
29815;BME280;16708;50.426;7.664;2023-05-29T12:13:57;991.40;;;29.46;36.47
29815;BME280;16708;50.426;7.664;2023-05-29T12:18:50;991.53;;;28.48;39.02
29815;BME280;16708;50.426;7.664;2023-05-29T12:28:39;991.37;;;27.76;39.08
29815;BME280;16708;50.426;7.664;2023-05-29T12:43:19;991.38;;;27.41;41.46
29815;BME280;16708;50.426;7.664;2023-05-29T12:53:05;991.47;;;28.25;39.59
29815;BME280;16708;50.426;7.664;2023-05-29T12:57:59;991.38;;;30.36;35.26
29815;BME280;16708;50.426;7.664;2023-05-29T13:02:54;991.36;;;32.81;29.73
29815;BME280;16708;50.426;7.664;2023-05-29T13:07:50;991.24;;;31.71;31.72
29815;BME280;16708;50.426;7.664;2023-05-29T13:12:43;991.17;;;27.43;36.17
29815;BME280;16708;50.426;7.664;2023-05-29T13:17:35;991.22;;;27.11;39.24
29815;BME280;16708;50.426;7.664;2023-05-29T13:22:29;991.27;;;26.42;40.78
29815;BME280;16708;50.426;7.664;2023-05-29T13:27:21;991.23;;;25.90;42.07
29815;BME280;16708;50.426;7.664;2023-05-29T13:32:14;991.18;;;27.09;37.72
29815;BME280;16708;50.426;7.664;2023-05-29T13:37:07;991.18;;;28.96;35.21
29815;BME280;16708;50.426;7.664;2023-05-29T13:42:03;991.22;;;30.92;31.19
29815;BME280;16708;50.426;7.664;2023-05-29T13:46:59;991.13;;;31.40;30.58
29815;BME280;16708;50.426;7.664;2023-05-29T13:51:54;991.20;;;30.74;31.87
29815;BME280;16708;50.426;7.664;2023-05-29T13:56:48;991.08;;;31.43;31.17
29815;BME280;16708;50.426;7.664;2023-05-29T14:01:43;991.21;;;33.24;27.97
29815;BME280;16708;50.426;7.664;2023-05-29T14:06:40;991.24;;;34.16;27.96
29815;BME280;16708;50.426;7.664;2023-05-29T14:11:34;991.02;;;31.36;31.47
29815;BME280;16708;50.426;7.664;2023-05-29T14:16:28;990.97;;;32.55;29.98
29815;BME280;16708;50.426;7.664;2023-05-29T14:21:22;990.97;;;33.01;28.94
29815;BME280;16708;50.426;7.664;2023-05-29T14:26:16;990.97;;;32.29;29.99
29815;BME280;16708;50.426;7.664;2023-05-29T14:31:11;990.91;;;33.17;28.03
29815;BME280;16708;50.426;7.664;2023-05-29T14:36:05;990.92;;;33.14;28.80
29815;BME280;16708;50.426;7.664;2023-05-29T14:41:00;990.90;;;32.37;30.99
29815;BME280;16708;50.426;7.664;2023-05-29T14:45:54;990.87;;;31.20;32.28
29815;BME280;16708;50.426;7.664;2023-05-29T14:50:48;990.79;;;31.30;31.65
29815;BME280;16708;50.426;7.664;2023-05-29T14:55:39;990.97;;;32.24;30.79
29815;BME280;16708;50.426;7.664;2023-05-29T15:00:33;990.85;;;30.33;34.09
29815;BME280;16708;50.426;7.664;2023-05-29T15:05:27;990.93;;;31.30;32.43
29815;BME280;16708;50.426;7.664;2023-05-29T15:10:20;990.89;;;32.31;29.92
29815;BME280;16708;50.426;7.664;2023-05-29T15:15:15;990.92;;;31.96;31.02
29815;BME280;16708;50.426;7.664;2023-05-29T15:20:09;990.82;;;29.86;33.52
29815;BME280;16708;50.426;7.664;2023-05-29T15:29:55;991.00;;;29.50;33.31
29815;BME280;16708;50.426;7.664;2023-05-29T15:34:49;990.98;;;30.99;30.91
29815;BME280;16708;50.426;7.664;2023-05-29T15:39:45;990.95;;;29.23;35.38
29815;BME280;16708;50.426;7.664;2023-05-29T15:44:37;990.91;;;27.30;37.34
29815;BME280;16708;50.426;7.664;2023-05-29T15:49:31;991.06;;;30.69;32.04
29815;BME280;16708;50.426;7.664;2023-05-29T15:54:23;990.93;;;30.77;32.52
29815;BME280;16708;50.426;7.664;2023-05-29T15:59:17;990.96;;;29.22;34.14
29815;BME280;16708;50.426;7.664;2023-05-29T16:04:12;991.00;;;29.68;34.19
29815;BME280;16708;50.426;7.664;2023-05-29T16:09:05;991.02;;;29.54;33.81
29815;BME280;16708;50.426;7.664;2023-05-29T16:14:00;991.09;;;30.36;32.66
29815;BME280;16708;50.426;7.664;2023-05-29T16:18:54;990.96;;;28.54;34.33
29815;BME280;16708;50.426;7.664;2023-05-29T16:23:48;991.04;;;28.79;34.37
29815;BME280;16708;50.426;7.664;2023-05-29T16:28:42;991.00;;;30.10;33.15
29815;BME280;16708;50.426;7.664;2023-05-29T16:33:36;991.03;;;29.43;33.43
29815;BME280;16708;50.426;7.664;2023-05-29T16:38:30;991.16;;;29.45;32.59
29815;BME280;16708;50.426;7.664;2023-05-29T16:43:24;991.11;;;27.89;35.53
29815;BME280;16708;50.426;7.664;2023-05-29T16:48:18;991.12;;;29.22;34.01
29815;BME280;16708;50.426;7.664;2023-05-29T16:53:12;991.07;;;28.14;34.50
29815;BME280;16708;50.426;7.664;2023-05-29T16:58:06;991.17;;;28.49;33.89
29815;BME280;16708;50.426;7.664;2023-05-29T17:02:59;991.13;;;27.20;36.29
29815;BME280;16708;50.426;7.664;2023-05-29T17:07:53;991.20;;;28.12;35.64
29815;BME280;16708;50.426;7.664;2023-05-29T17:12:47;991.16;;;26.51;38.11
29815;BME280;16708;50.426;7.664;2023-05-29T17:17:41;991.21;;;26.94;36.21
29815;BME280;16708;50.426;7.664;2023-05-29T17:22:35;991.14;;;25.02;40.08
29815;BME280;16708;50.426;7.664;2023-05-29T17:27:28;991.29;;;26.30;37.47
29815;BME280;16708;50.426;7.664;2023-05-29T17:32:21;991.35;;;26.32;37.70
29815;BME280;16708;50.426;7.664;2023-05-29T17:37:16;991.32;;;25.37;39.89
29815;BME280;16708;50.426;7.664;2023-05-29T17:42:10;991.37;;;25.77;37.62
29815;BME280;16708;50.426;7.664;2023-05-29T17:47:04;991.50;;;25.33;39.16
29815;BME280;16708;50.426;7.664;2023-05-29T17:51:58;991.40;;;25.18;40.11
29815;BME280;16708;50.426;7.664;2023-05-29T17:56:52;991.40;;;24.94;39.25
29815;BME280;16708;50.426;7.664;2023-05-29T18:01:46;991.47;;;25.07;39.69
29815;BME280;16708;50.426;7.664;2023-05-29T18:06:40;991.48;;;23.56;45.20
29815;BME280;16708;50.426;7.664;2023-05-29T18:11:32;991.45;;;23.57;43.71
29815;BME280;16708;50.426;7.664;2023-05-29T18:16:25;991.47;;;23.62;43.70
29815;BME280;16708;50.426;7.664;2023-05-29T18:21:19;991.52;;;22.74;47.66
29815;BME280;16708;50.426;7.664;2023-05-29T18:26:10;991.49;;;21.57;51.40
29815;BME280;16708;50.426;7.664;2023-05-29T18:31:03;991.52;;;21.94;52.60
29815;BME280;16708;50.426;7.664;2023-05-29T18:35:57;991.53;;;21.07;56.46
29815;BME280;16708;50.426;7.664;2023-05-29T18:40:51;991.54;;;20.56;60.36
29815;BME280;16708;50.426;7.664;2023-05-29T18:45:45;991.45;;;20.35;63.08
29815;BME280;16708;50.426;7.664;2023-05-29T18:50:37;991.62;;;19.64;69.06
29815;BME280;16708;50.426;7.664;2023-05-29T18:55:29;991.65;;;19.55;71.98
29815;BME280;16708;50.426;7.664;2023-05-29T19:00:23;991.74;;;19.51;71.24
29815;BME280;16708;50.426;7.664;2023-05-29T19:05:17;991.73;;;19.34;74.05
29815;BME280;16708;50.426;7.664;2023-05-29T19:10:11;991.78;;;19.01;76.77
29815;BME280;16708;50.426;7.664;2023-05-29T19:15:05;991.91;;;18.73;77.99
29815;BME280;16708;50.426;7.664;2023-05-29T19:19:58;991.93;;;18.48;81.72
29815;BME280;16708;50.426;7.664;2023-05-29T19:24:52;992.09;;;18.27;82.89
29815;BME280;16708;50.426;7.664;2023-05-29T19:29:46;992.08;;;18.06;82.77
29815;BME280;16708;50.426;7.664;2023-05-29T19:34:39;992.18;;;18.06;85.71
29815;BME280;16708;50.426;7.664;2023-05-29T19:39:33;992.15;;;17.89;85.60
29815;BME280;16708;50.426;7.664;2023-05-29T19:44:27;992.13;;;17.58;87.63
29815;BME280;16708;50.426;7.664;2023-05-29T19:49:21;992.34;;;17.40;90.33
29815;BME280;16708;50.426;7.664;2023-05-29T19:54:14;992.36;;;17.28;90.74
29815;BME280;16708;50.426;7.664;2023-05-29T19:59:05;992.36;;;17.14;95.18
29815;BME280;16708;50.426;7.664;2023-05-29T20:03:58;992.46;;;16.99;99.45
29815;BME280;16708;50.426;7.664;2023-05-29T20:08:52;992.43;;;16.99;96.81
29815;BME280;16708;50.426;7.664;2023-05-29T20:13:45;992.51;;;16.91;97.76
29815;BME280;16708;50.426;7.664;2023-05-29T20:18:37;992.56;;;16.69;98.39
29815;BME280;16708;50.426;7.664;2023-05-29T20:23:29;992.54;;;16.68;99.56
29815;BME280;16708;50.426;7.664;2023-05-29T20:28:23;992.67;;;16.48;100.00
29815;BME280;16708;50.426;7.664;2023-05-29T20:33:17;992.67;;;16.40;100.00
29815;BME280;16708;50.426;7.664;2023-05-29T20:38:11;992.67;;;16.24;100.00
29815;BME280;16708;50.426;7.664;2023-05-29T20:43:05;992.69;;;16.12;100.00
29815;BME280;16708;50.426;7.664;2023-05-29T20:47:59;992.75;;;15.97;100.00
29815;BME280;16708;50.426;7.664;2023-05-29T20:52:53;992.68;;;15.91;100.00
29815;BME280;16708;50.426;7.664;2023-05-29T20:57:47;992.71;;;15.82;100.00
29815;BME280;16708;50.426;7.664;2023-05-29T21:02:41;992.81;;;15.77;100.00
29815;BME280;16708;50.426;7.664;2023-05-29T21:07:35;992.69;;;15.61;100.00
29815;BME280;16708;50.426;7.664;2023-05-29T21:12:28;992.83;;;15.48;100.00
29815;BME280;16708;50.426;7.664;2023-05-29T21:17:21;992.88;;;15.48;100.00
29815;BME280;16708;50.426;7.664;2023-05-29T21:22:15;992.80;;;15.42;100.00
29815;BME280;16708;50.426;7.664;2023-05-29T21:27:08;992.87;;;15.31;100.00
29815;BME280;16708;50.426;7.664;2023-05-29T21:32:02;992.83;;;15.08;100.00
29815;BME280;16708;50.426;7.664;2023-05-29T21:36:56;992.87;;;14.99;100.00
29815;BME280;16708;50.426;7.664;2023-05-29T21:41:51;992.97;;;15.00;100.00
29815;BME280;16708;50.426;7.664;2023-05-29T21:46:45;992.98;;;14.95;100.00
29815;BME280;16708;50.426;7.664;2023-05-29T21:51:39;993.00;;;14.85;100.00
29815;BME280;16708;50.426;7.664;2023-05-29T21:56:33;993.11;;;14.88;100.00
29815;BME280;16708;50.426;7.664;2023-05-29T22:01:27;993.18;;;14.83;100.00
29815;BME280;16708;50.426;7.664;2023-05-29T22:06:21;993.17;;;14.88;100.00
29815;BME280;16708;50.426;7.664;2023-05-29T22:11:15;993.23;;;14.90;100.00
29815;BME280;16708;50.426;7.664;2023-05-29T22:16:08;993.15;;;14.80;100.00
29815;BME280;16708;50.426;7.664;2023-05-29T22:21:01;993.20;;;14.73;100.00
29815;BME280;16708;50.426;7.664;2023-05-29T22:25:55;993.21;;;14.72;100.00
29815;BME280;16708;50.426;7.664;2023-05-29T22:30:52;993.26;;;14.54;100.00
29815;BME280;16708;50.426;7.664;2023-05-29T22:35:43;993.19;;;14.52;100.00
29815;BME280;16708;50.426;7.664;2023-05-29T22:40:37;993.14;;;14.49;100.00
29815;BME280;16708;50.426;7.664;2023-05-29T22:45:31;993.24;;;14.36;100.00
29815;BME280;16708;50.426;7.664;2023-05-29T22:50:26;993.37;;;14.31;100.00
29815;BME280;16708;50.426;7.664;2023-05-29T22:55:20;993.31;;;14.22;100.00
29815;BME280;16708;50.426;7.664;2023-05-29T23:00:13;993.32;;;14.20;100.00
29815;BME280;16708;50.426;7.664;2023-05-29T23:05:07;993.40;;;14.06;100.00
29815;BME280;16708;50.426;7.664;2023-05-29T23:10:01;993.37;;;13.99;100.00
29815;BME280;16708;50.426;7.664;2023-05-29T23:14:55;993.43;;;13.76;100.00
29815;BME280;16708;50.426;7.664;2023-05-29T23:19:49;993.52;;;13.51;100.00
29815;BME280;16708;50.426;7.664;2023-05-29T23:24:44;993.58;;;13.39;100.00
29815;BME280;16708;50.426;7.664;2023-05-29T23:29:36;993.57;;;13.24;100.00
29815;BME280;16708;50.426;7.664;2023-05-29T23:34:30;993.66;;;13.20;100.00
29815;BME280;16708;50.426;7.664;2023-05-29T23:39:24;993.68;;;13.06;100.00
29815;BME280;16708;50.426;7.664;2023-05-29T23:44:18;993.69;;;12.95;100.00
29815;BME280;16708;50.426;7.664;2023-05-29T23:49:12;993.77;;;12.82;100.00
29815;BME280;16708;50.426;7.664;2023-05-29T23:54:06;993.72;;;12.70;100.00
29815;BME280;16708;50.426;7.664;2023-05-29T23:59:01;993.83;;;12.61;100.00
